Garrisonville, Virginia
Current Conditions -  °F | °C
As of 1:15 PM on Sunday 25 Jan 2015 (Local Time) from KRMN Reporting Station
Clear Clear  
Wind Chill: 45°   Ceiling: Unl
Heat Index: 49°   Visibility: 10mi
Dew Point: 30°   Wind: 8mph
Humidity: 49%   Direction: 200°SSW
Pressure: 29.88"   Gusts: NA
Location:  38.48°N, 77.43°W
Report Text: KRMN 251815Z AUTO 20007KT 10SM CLR 09/M01 A2988 RMK AO2 T00931010
Loading
Personal Weather Stations






























Interactive Weather Map New forecast layout! Learn more

10-Day Weather Forecast

Advertisements
Track Severe Weather on mobile